Time;durP1;ratioP1;P1;durP2;ratioP2;P2;SDS_P1;SDS_P2;PMS_P1;PMS_P2;Temp;Humidity;BMP_temperature;BMP_pressure;BME280_temperature;BME280_humidity;BME280_pressure;Samples;Min_cycle;Max_cycle;Signal;HPM_P1;HPM_P2
2023/12/28 00:01:45;;;;;;;13.82;7.40;;;;;;;5.57;100.00;101009.50;6276285;28;20048;-84
2023/12/28 00:04:46;;;;;;;16.65;6.85;;;;;;;5.44;100.00;101005.53;6294185;28;20131;-83
2023/12/28 00:07:47;;;;;;;15.77;7.07;;;;;;;5.53;100.00;101017.38;6294260;28;20052;-84
2023/12/28 00:10:48;;;;;;;15.27;7.18;;;;;;;5.61;100.00;101012.88;6293992;28;20519;-83
2023/12/28 00:13:49;;;;;;;16.67;7.40;;;;;;;5.71;100.00;101011.75;6275832;28;20044;-83
2023/12/28 00:16:50;;;;;;;13.50;7.03;;;;;;;5.60;100.00;101012.03;6275883;28;20417;-84
2023/12/28 00:19:50;;;;;;;13.40;6.30;;;;;;;5.64;100.00;101018.81;6276158;28;20060;-84
2023/12/28 00:22:51;;;;;;;12.00;6.30;;;;;;;5.68;100.00;101022.16;6293865;28;20044;-84
2023/12/28 00:25:52;;;;;;;12.85;6.55;;;;;;;5.67;100.00;101010.13;6275904;28;20436;-83
2023/12/28 00:28:54;;;;;;;13.10;6.38;;;;;;;5.76;100.00;101015.06;6276365;28;20049;-84
2023/12/28 00:31:55;;;;;;;14.30;7.05;;;;;;;5.73;100.00;101019.47;6257669;28;20056;-84
2023/12/28 00:34:56;;;;;;;11.05;5.82;;;;;;;5.67;100.00;101010.13;6269160;28;20049;-83
2023/12/28 00:37:59;;;;;;;11.65;6.13;;;;;;;5.75;100.00;101015.97;6285478;28;20044;-83
2023/12/28 00:41:00;;;;;;;9.65;5.68;;;;;;;5.72;100.00;101020.34;6283404;28;20274;-83
2023/12/28 00:44:02;;;;;;;12.00;5.80;;;;;;;5.76;100.00;101020.22;6275027;28;20115;-83
2023/12/28 00:47:04;;;;;;;10.87;6.13;;;;;;;5.82;100.00;101024.41;6276146;28;20129;-83
2023/12/28 00:50:05;;;;;;;12.85;5.60;;;;;;;5.71;100.00;101003.13;6276119;28;20056;-83
2023/12/28 00:53:06;;;;;;;9.40;5.45;;;;;;;5.84;100.00;101025.22;6275652;28;20049;-84
2023/12/28 00:56:07;;;;;;;13.35;6.20;;;;;;;5.79;100.00;101027.94;6292057;28;20049;-83
2023/12/28 00:59:08;;;;;;;8.60;5.45;;;;;;;5.88;100.00;101026.00;6275325;28;20044;-83
2023/12/28 01:02:12;;;;;;;12.98;5.60;;;;;;;5.81;100.00;101015.81;6260002;28;20106;-83
2023/12/28 01:05:14;;;;;;;9.07;4.88;;;;;;;5.90;100.00;101019.03;6266649;28;20102;-83
2023/12/28 01:08:15;;;;;;;13.30;6.50;;;;;;;5.96;100.00;101029.28;6275109;28;20071;-83
2023/12/28 01:11:18;;;;;;;13.35;5.97;;;;;;;5.82;100.00;101016.66;6275979;28;20537;-83
2023/12/28 01:14:19;;;;;;;11.43;5.25;;;;;;;5.69;100.00;101015.28;6275203;28;20585;-83
2023/12/28 01:17:20;;;;;;;9.32;5.30;;;;;;;5.88;100.00;101024.25;6255473;28;20406;-83
2023/12/28 01:20:21;;;;;;;10.57;5.45;;;;;;;5.89;100.00;101018.19;6271689;28;20500;-83
2023/12/28 01:23:24;;;;;;;11.13;5.43;;;;;;;5.86;100.00;101023.44;6274574;28;20044;-83
2023/12/28 01:26:25;;;;;;;9.25;5.05;;;;;;;5.89;100.00;101017.31;6267740;28;20429;-83
2023/12/28 01:29:26;;;;;;;11.18;4.45;;;;;;;5.88;100.00;101013.06;6275141;28;20082;-84
2023/12/28 01:32:27;;;;;;;10.63;5.97;;;;;;;6.09;100.00;101011.66;6276191;28;20467;-83
2023/12/28 01:35:28;;;;;;;11.90;5.82;;;;;;;5.98;100.00;101017.13;6267409;28;20051;-83
2023/12/28 01:38:29;;;;;;;7.53;4.32;;;;;;;5.99;100.00;101024.88;6279649;28;20052;-84
2023/12/28 01:41:30;;;;;;;9.07;4.80;;;;;;;5.94;100.00;101018.06;6297094;28;20048;-83
2023/12/28 01:44:32;;;;;;;10.45;5.38;;;;;;;6.09;100.00;101007.31;6272459;28;20382;-84
2023/12/28 01:47:34;;;;;;;10.35;4.70;;;;;;;5.98;100.00;100989.47;6279275;28;20074;-83
2023/12/28 01:50:35;;;;;;;7.10;4.18;;;;;;;6.02;100.00;100990.25;6279727;28;20135;-84
2023/12/28 01:53:36;;;;;;;9.80;4.30;;;;;;;6.01;100.00;100986.81;6256005;28;20048;-84
2023/12/28 01:56:38;;;;;;;9.00;4.75;;;;;;;6.16;100.00;100980.34;6276403;28;20521;-84
2023/12/28 01:59:42;;;;;;;9.35;4.43;;;;;;;6.07;100.00;100983.19;6278956;28;20056;-82
2023/12/28 02:02:44;;;;;;;7.47;4.63;;;;;;;6.04;100.00;100980.69;6267564;28;20053;-84
2023/12/28 02:05:45;;;;;;;;;;;;;;;6.08;100.00;100982.31;6254708;28;20076;-83
2023/12/28 02:08:46;;;;;;;10.77;4.38;;;;;;;6.05;100.00;100969.41;6288288;28;20305;-83
2023/12/28 02:11:50;;;;;;;8.23;4.22;;;;;;;6.19;100.00;100982.84;6278509;28;20048;-82
2023/12/28 02:14:50;;;;;;;7.43;4.45;;;;;;;6.20;100.00;100978.53;6277658;28;20045;-84
2023/12/28 02:18:07;;;;;;;11.45;5.25;;;;;;;6.19;100.00;100982.00;6275609;28;20041;-82
2023/12/28 02:21:08;;;;;;;9.10;4.65;;;;;;;6.03;100.00;100963.44;6296231;28;20048;-85
2023/12/28 02:24:09;;;;;;;9.13;5.07;;;;;;;6.14;100.00;100965.75;6274263;28;20512;-82
2023/12/28 02:27:10;;;;;;;10.07;4.72;;;;;;;6.20;100.00;100976.78;6271424;28;20060;-82
2023/12/28 02:30:12;;;;;;;11.43;4.85;;;;;;;6.08;100.00;100978.88;6287639;28;20131;-83
2023/12/28 02:33:18;;;;;;;9.10;4.65;;;;;;;6.16;100.00;100959.63;6299898;28;20114;-83
2023/12/28 02:36:24;;;;;;;11.85;4.97;;;;;;;6.22;100.00;100961.19;6271015;28;20048;-83
2023/12/28 02:39:25;;;;;;;6.50;4.28;;;;;;;6.21;100.00;100962.09;6273433;28;20562;-84
2023/12/28 02:42:26;;;;;;;8.45;5.10;;;;;;;6.16;100.00;100951.84;6270078;28;20124;-83
2023/12/28 02:45:27;;;;;;;9.15;5.28;;;;;;;6.07;100.00;100956.44;6270993;28;20391;-83
2023/12/28 02:48:28;;;;;;;8.82;5.05;;;;;;;6.04;100.00;100944.41;6275400;28;20379;-83
2023/12/28 02:51:29;;;;;;;9.98;4.80;;;;;;;6.28;100.00;100950.66;6264806;28;20049;-83
2023/12/28 02:54:30;;;;;;;7.82;4.80;;;;;;;6.31;100.00;100939.34;6252943;28;20132;-82
2023/12/28 02:57:31;;;;;;;15.60;4.85;;;;;;;6.30;100.00;100933.31;6269156;28;20080;-83
2023/12/28 03:00:32;;;;;;;9.70;4.50;;;;;;;6.33;100.00;100937.56;6295254;28;20049;-84
2023/12/28 03:03:35;;;;;;;11.65;4.57;;;;;;;6.21;100.00;100918.03;6277585;28;20069;-82
2023/12/28 03:06:40;;;;;;;8.77;4.78;;;;;;;6.30;100.00;100920.38;6277140;28;20052;-82
2023/12/28 03:09:43;;;;;;;10.25;4.13;;;;;;;6.34;100.00;100931.47;6280570;28;20094;-83
2023/12/28 03:12:44;;;;;;;7.38;4.35;;;;;;;6.27;100.00;100930.81;6252404;28;20063;-83
2023/12/28 03:15:45;;;;;;;6.93;3.92;;;;;;;6.29;100.00;100926.41;6270635;28;20459;-83
2023/12/28 03:18:46;;;;;;;6.65;4.15;;;;;;;6.28;100.00;100926.47;6271816;28;20051;-83
2023/12/28 03:21:47;;;;;;;8.68;4.63;;;;;;;6.33;100.00;100927.19;6259266;28;20052;-82
2023/12/28 03:24:49;;;;;;;5.88;3.60;;;;;;;6.32;100.00;100915.97;6270910;28;20045;-83
2023/12/28 03:27:49;;;;;;;7.43;3.58;;;;;;;6.30;100.00;100916.91;6284263;28;20068;-83
2023/12/28 03:30:51;;;;;;;7.05;3.97;;;;;;;6.41;100.00;100907.06;6274665;28;20049;-83
2023/12/28 03:33:55;;;;;;;7.45;4.00;;;;;;;6.35;100.00;100902.91;6285154;28;20045;-84
2023/12/28 03:36:57;;;;;;;11.82;4.03;;;;;;;6.41;100.00;100899.28;6294912;28;20062;-83
2023/12/28 03:39:58;;;;;;;5.97;3.97;;;;;;;6.23;100.00;100888.56;6277773;28;20132;-83
2023/12/28 03:42:59;;;;;;;7.70;4.40;;;;;;;6.41;100.00;100886.34;6267249;28;20044;-83
2023/12/28 03:46:00;;;;;;;10.50;5.18;;;;;;;6.41;100.00;100887.19;6267909;28;20051;-83
2023/12/28 03:49:00;;;;;;;15.52;5.50;;;;;;;6.38;100.00;100886.41;6251617;28;20149;-83
2023/12/28 03:52:01;;;;;;;7.38;4.25;;;;;;;6.39;100.00;100878.59;6274534;28;20044;-83
2023/12/28 03:55:02;;;;;;;10.27;5.13;;;;;;;6.47;100.00;100867.16;6279283;28;20101;-83
2023/12/28 03:58:03;;;;;;;8.20;4.78;;;;;;;6.43;100.00;100864.66;6277649;28;20114;-84
2023/12/28 04:01:06;;;;;;;11.95;6.55;;;;;;;6.43;100.00;100861.22;6277146;28;20481;-84
2023/12/28 04:04:09;;;;;;;6.65;4.38;;;;;;;6.33;100.00;100859.78;6264590;28;20044;-83
2023/12/28 04:07:10;;;;;;;7.60;4.75;;;;;;;6.41;100.00;100858.66;6280934;28;20528;-84
2023/12/28 04:10:11;;;;;;;7.32;3.90;;;;;;;6.31;100.00;100859.84;6269922;28;20063;-84
2023/12/28 04:13:13;;;;;;;11.60;5.30;;;;;;;6.37;100.00;100858.81;6270860;28;20627;-84
2023/12/28 04:16:14;;;;;;;7.75;4.50;;;;;;;6.44;100.00;100855.13;6256227;28;20040;-83
2023/12/28 04:19:15;;;;;;;8.73;5.05;;;;;;;6.47;100.00;100852.44;6278895;28;20067;-83
2023/12/28 04:22:16;;;;;;;6.47;3.97;;;;;;;6.42;100.00;100859.50;6290229;28;20053;-83
2023/12/28 04:25:17;;;;;;;5.55;3.63;;;;;;;6.44;100.00;100855.13;6270334;28;20604;-84
2023/12/28 04:28:18;;;;;;;9.02;3.20;;;;;;;6.32;100.00;100848.59;6251087;28;20064;-83
2023/12/28 04:31:19;;;;;;;6.47;3.47;;;;;;;6.34;100.00;100851.09;6290730;28;20068;-83
2023/12/28 04:34:20;;;;;;;6.95;3.65;;;;;;;6.39;100.00;100854.44;6266057;28;20215;-83
2023/12/28 04:37:21;;;;;;;6.85;3.63;;;;;;;6.37;100.00;100859.66;6254446;28;20084;-83
2023/12/28 04:40:22;;;;;;;10.57;4.53;;;;;;;6.49;100.00;100852.41;6270873;28;20102;-84
2023/12/28 04:43:25;;;;;;;4.85;3.28;;;;;;;6.42;100.00;100865.56;6280520;28;20527;-83
2023/12/28 04:46:26;;;;;;;5.90;3.72;;;;;;;6.42;100.00;100857.78;6288662;28;20551;-84
2023/12/28 04:49:27;;;;;;;6.50;3.65;;;;;;;6.46;100.00;100850.72;6288371;28;20052;-84
2023/12/28 04:52:28;;;;;;;5.97;3.97;;;;;;;6.51;100.00;100850.63;6276702;28;20052;-83
2023/12/28 04:55:31;;;;;;;5.85;3.42;;;;;;;6.51;100.00;100838.50;6262224;28;20048;-83
2023/12/28 04:58:32;;;;;;;8.43;4.28;;;;;;;6.51;100.00;100848.84;6284638;28;20087;-83
2023/12/28 05:01:33;;;;;;;8.77;3.70;;;;;;;6.48;100.00;100841.16;6278458;28;20048;-83
2023/12/28 05:04:40;;;;;;;9.82;4.72;;;;;;;6.54;100.00;100845.31;6265776;28;20041;-83
2023/12/28 05:07:41;;;;;;;6.40;3.78;;;;;;;6.53;100.00;100846.22;6263409;28;20193;-84
2023/12/28 05:10:42;;;;;;;8.23;4.28;;;;;;;6.45;100.00;100844.72;6280335;28;20049;-84
2023/12/28 05:13:42;;;;;;;7.40;3.83;;;;;;;6.50;100.00;100847.16;6264704;28;20059;-83
2023/12/28 05:16:46;;;;;;;10.13;4.72;;;;;;;6.48;100.00;100832.53;6279613;28;20139;-83
2023/12/28 05:19:50;;;;;;;7.55;3.55;;;;;;;6.52;100.00;100839.31;6286758;28;20051;-83
2023/12/28 05:22:51;;;;;;;6.45;3.40;;;;;;;6.51;100.00;100829.88;6273159;28;20087;-83
2023/12/28 05:25:52;;;;;;;6.85;3.80;;;;;;;6.53;99.62;100833.25;6265619;28;20049;-83
2023/12/28 05:28:53;;;;;;;5.38;3.30;;;;;;;6.43;99.46;100817.13;6279517;28;20076;-83
2023/12/28 05:31:54;;;;;;;6.43;3.42;;;;;;;6.53;99.15;100836.69;6279504;28;20071;-83
2023/12/28 05:34:55;;;;;;;5.03;3.47;;;;;;;6.49;98.78;100827.31;6254866;28;20045;-83
2023/12/28 05:37:56;;;;;;;5.75;3.88;;;;;;;6.37;98.66;100818.19;6271136;28;20402;-82
2023/12/28 05:40:57;;;;;;;7.85;3.95;;;;;;;6.43;98.33;100830.94;6279145;28;20059;-83
2023/12/28 05:43:57;;;;;;;7.65;4.15;;;;;;;6.31;97.88;100833.91;6267026;28;20459;-83
2023/12/28 05:46:58;;;;;;;5.70;3.70;;;;;;;6.27;97.88;100837.50;6264130;28;20436;-84
2023/12/28 05:49:59;;;;;;;6.25;4.07;;;;;;;6.20;98.36;100839.44;6295166;28;20048;-85
2023/12/28 05:52:59;;;;;;;7.97;4.22;;;;;;;6.23;98.25;100841.06;6272330;28;20048;-84
2023/12/28 05:56:03;;;;;;;7.80;4.18;;;;;;;6.12;98.64;100851.78;6265074;28;20045;-83
2023/12/28 05:59:04;;;;;;;8.63;4.40;;;;;;;6.14;98.55;100851.75;6269425;28;20052;-83
2023/12/28 06:02:05;;;;;;;7.75;4.63;;;;;;;6.09;98.90;100843.22;6269812;28;20052;-82
2023/12/28 06:05:08;;;;;;;9.63;4.50;;;;;;;5.96;99.35;100822.03;6293229;28;20067;-82
2023/12/28 06:08:11;;;;;;;9.13;5.00;;;;;;;6.11;99.71;100837.09;6261603;28;20045;-84
2023/12/28 06:11:12;;;;;;;12.98;4.43;;;;;;;6.09;99.70;100841.50;6263302;28;20060;-84
2023/12/28 06:14:13;;;;;;;8.60;4.45;;;;;;;6.12;99.95;100841.41;6253812;28;20045;-83
2023/12/28 06:17:15;;;;;;;12.63;5.32;;;;;;;6.20;99.74;100841.19;6256178;28;20051;-83
2023/12/28 06:20:16;;;;;;;6.47;3.67;;;;;;;6.18;98.43;100848.16;6286374;28;20045;-83
2023/12/28 06:23:17;;;;;;;13.60;4.25;;;;;;;6.22;98.09;100854.94;6259606;28;20162;-82
2023/12/28 06:26:18;;;;;;;7.30;4.18;;;;;;;6.17;97.74;100849.03;6286487;28;20059;-84
2023/12/28 06:29:19;;;;;;;7.28;3.78;;;;;;;6.25;97.50;100847.06;6296071;28;20052;-85
2023/12/28 06:32:19;;;;;;;7.22;3.45;;;;;;;6.27;96.83;100852.22;6275640;28;20135;-86
2023/12/28 06:35:22;;;;;;;5.70;3.72;;;;;;;6.25;96.97;100847.91;6259997;28;20059;-81
2023/12/28 06:38:24;;;;;;;6.57;3.55;;;;;;;6.20;95.94;100849.81;6271558;28;20063;-86
2023/12/28 06:41:25;;;;;;;15.45;4.35;;;;;;;6.28;95.28;100852.16;6273646;28;20508;-82
2023/12/28 06:44:26;;;;;;;5.27;3.33;;;;;;;6.28;94.87;100848.72;6277131;28;20429;-82
2023/12/28 06:47:27;;;;;;;8.50;4.15;;;;;;;6.18;94.11;100830.84;6278030;28;20274;-82
2023/12/28 06:50:28;;;;;;;7.53;3.95;;;;;;;6.16;94.46;100839.59;6279411;28;20055;-84
2023/12/28 06:53:29;;;;;;;5.82;3.67;;;;;;;6.17;94.26;100844.69;6280394;28;20677;-82
2023/12/28 06:56:32;;;;;;;14.60;3.75;;;;;;;6.19;94.35;100847.25;6297947;28;20052;-85
2023/12/28 06:59:33;;;;;;;6.95;3.50;;;;;;;6.14;93.94;100843.97;6278479;28;20044;-85
2023/12/28 07:02:34;;;;;;;8.63;4.05;;;;;;;6.20;93.72;100856.75;6295043;28;20041;-84
2023/12/28 07:05:35;;;;;;;8.55;3.78;;;;;;;6.11;93.32;100855.25;6262112;28;20716;-82
2023/12/28 07:08:36;;;;;;;10.65;4.80;;;;;;;6.12;93.58;100846.59;6293900;28;20066;-84
2023/12/28 07:11:39;;;;;;;10.75;4.80;;;;;;;6.11;93.46;100846.63;6277333;28;20044;-83
2023/12/28 07:14:40;;;;;;;11.10;4.15;;;;;;;6.17;93.66;100854.22;6294490;28;20131;-82
2023/12/28 07:17:42;;;;;;;10.80;5.18;;;;;;;6.19;93.42;100845.50;6288361;28;20424;-83
2023/12/28 07:20:42;;;;;;;11.15;4.35;;;;;;;6.20;93.48;100839.44;6294483;28;20045;-82
2023/12/28 07:23:48;;;;;;;10.35;5.35;;;;;;;6.27;93.93;100840.09;6277338;28;20048;-83
2023/12/28 07:26:50;;;;;;;11.48;5.40;;;;;;;6.36;93.57;100844.13;6277099;28;20044;-84
2023/12/28 07:29:51;;;;;;;10.60;5.20;;;;;;;6.36;93.46;100833.75;6277541;28;20527;-86
2023/12/28 07:32:52;;;;;;;8.00;4.30;;;;;;;6.39;93.55;100837.13;6295483;28;20052;-86
2023/12/28 07:35:53;;;;;;;10.95;5.07;;;;;;;6.49;93.08;100823.88;6277137;28;20500;-85
2023/12/28 07:38:53;;;;;;;40.83;15.57;;;;;;;6.58;92.41;100824.41;6278274;28;20489;-87
2023/12/28 07:41:54;;;;;;;21.95;6.97;;;;;;;6.73;91.44;100832.59;6276601;28;20091;-83
2023/12/28 07:44:55;;;;;;;27.85;16.98;;;;;;;6.75;91.13;100830.81;6294321;28;20048;-83
2023/12/28 07:47:56;;;;;;;32.30;21.63;;;;;;;6.88;91.02;100839.91;6276580;28;20080;-83
2023/12/28 07:51:00;;;;;;;27.38;14.88;;;;;;;7.07;90.41;100830.56;6277980;28;20053;-84
2023/12/28 07:54:01;;;;;;;18.80;7.85;;;;;;;7.16;89.61;100826.81;6269763;28;20045;-83
2023/12/28 07:57:02;;;;;;;12.20;7.53;;;;;;;7.26;89.34;100823.00;6257737;28;20090;-83
2023/12/28 08:00:03;;;;;;;21.80;13.35;;;;;;;7.28;88.92;100816.91;6294623;28;20048;-85
2023/12/28 08:03:04;;;;;;;16.17;9.82;;;;;;;7.38;87.98;100810.50;6265560;28;20063;-83
2023/12/28 08:06:05;;;;;;;10.45;6.05;;;;;;;7.53;87.55;100812.53;6253321;28;20049;-86
2023/12/28 08:09:06;;;;;;;7.32;4.60;;;;;;;7.70;86.71;100809.34;6272091;28;20045;-84
2023/12/28 08:12:07;;;;;;;6.40;3.83;;;;;;;7.84;85.56;100801.00;6275194;28;20174;-82
2023/12/28 08:15:11;;;;;;;6.25;3.53;;;;;;;7.92;85.38;100814.56;6270282;28;20044;-83
2023/12/28 08:18:12;;;;;;;7.50;3.78;;;;;;;7.98;85.20;100816.09;6258913;28;20489;-85
2023/12/28 08:21:13;;;;;;;8.02;3.78;;;;;;;8.17;83.96;100795.44;6271681;28;20056;-84
2023/12/28 08:24:14;;;;;;;9.43;6.40;;;;;;;8.20;83.24;100816.13;6258544;28;20053;-82
2023/12/28 08:27:15;;;;;;;8.23;4.57;;;;;;;8.33;82.34;100812.13;6269188;28;20059;-81
2023/12/28 08:30:16;;;;;;;9.30;5.00;;;;;;;8.55;81.70;100819.94;6290908;28;20059;-82
2023/12/28 08:33:17;;;;;;;9.25;3.97;;;;;;;8.67;80.86;100811.66;6293330;28;20492;-83
2023/12/28 08:36:19;;;;;;;7.90;3.50;;;;;;;8.83;79.65;100826.59;6318914;28;20519;-83
2023/12/28 08:39:19;;;;;;;5.70;3.38;;;;;;;8.92;80.07;100817.59;6302121;28;20044;-83
2023/12/28 08:42:20;;;;;;;5.57;3.28;;;;;;;9.01;79.37;100823.25;6270895;28;20094;-83
2023/12/28 08:45:21;;;;;;;8.30;4.10;;;;;;;8.93;79.27;100814.91;6280029;28;20053;-83
2023/12/28 08:48:22;;;;;;;6.40;3.50;;;;;;;8.95;77.93;100807.88;6251297;28;20088;-83
2023/12/28 08:51:24;;;;;;;8.90;3.90;;;;;;;8.87;77.39;100812.56;6274428;28;20048;-84
2023/12/28 08:54:25;;;;;;;6.43;3.20;;;;;;;8.93;77.25;100816.66;6275397;28;20447;-83
2023/12/28 08:57:26;;;;;;;7.88;3.88;;;;;;;9.16;77.56;100820.91;6265895;28;20061;-84
2023/12/28 09:00:27;;;;;;;7.57;3.80;;;;;;;9.07;76.43;100825.59;6270179;28;20402;-84
2023/12/28 09:03:27;;;;;;;5.82;3.42;;;;;;;9.13;77.01;100837.50;6288413;28;20122;-85
2023/12/28 09:06:28;;;;;;;6.75;3.95;;;;;;;9.42;77.01;100838.00;6288251;28;20056;-85
2023/12/28 09:09:29;;;;;;;5.68;3.03;;;;;;;9.27;77.02;100837.75;6270617;28;20462;-84
2023/12/28 09:12:30;;;;;;;5.90;3.08;;;;;;;9.28;76.32;100821.22;6260448;28;20087;-86
2023/12/28 09:15:32;;;;;;;6.93;3.30;;;;;;;9.57;75.62;100828.66;6267315;28;20044;-83
2023/12/28 09:18:33;;;;;;;4.73;2.57;;;;;;;9.51;75.76;100831.53;6267649;28;20072;-84
2023/12/28 09:21:34;;;;;;;4.13;3.00;;;;;;;9.48;75.78;100817.75;6255259;28;20071;-84
2023/12/28 09:24:35;;;;;;;7.55;3.25;;;;;;;9.53;75.80;100812.31;6255224;28;20088;-83
2023/12/28 09:27:36;;;;;;;3.40;2.60;;;;;;;9.70;75.00;100808.97;6267131;28;20194;-84
2023/12/28 09:30:37;;;;;;;4.32;2.70;;;;;;;9.73;74.83;100795.78;6259777;28;20152;-84
2023/12/28 09:33:38;;;;;;;5.47;2.90;;;;;;;9.55;75.03;100792.25;6254124;28;20044;-84
2023/12/28 09:36:39;;;;;;;6.60;3.13;;;;;;;9.69;75.83;100797.69;6270534;28;20048;-84
2023/12/28 09:39:41;;;;;;;6.90;3.17;;;;;;;9.88;74.74;100799.44;6258876;28;20053;-84
2023/12/28 09:43:08;;;;;;;4.53;2.60;;;;;;;9.77;74.70;100793.91;6271340;28;20064;-85
2023/12/28 09:46:11;;;;;;;4.82;2.60;;;;;;;10.01;74.78;100792.75;6273014;28;20508;-84
2023/12/28 09:49:12;;;;;;;5.38;2.40;;;;;;;10.11;74.02;100777.53;6258183;28;20052;-84
2023/12/28 09:52:13;;;;;;;5.50;3.08;;;;;;;9.91;74.82;100778.47;6260959;28;20273;-84
2023/12/28 09:55:15;;;;;;;7.07;3.10;;;;;;;10.35;73.27;100775.53;6259907;28;20049;-84
2023/12/28 09:58:17;;;;;;;10.55;3.13;;;;;;;10.27;73.79;100778.50;6258591;28;20049;-84
2023/12/28 10:01:19;;;;;;;8.63;3.13;;;;;;;10.38;73.66;100766.72;6262638;28;20041;-84
2023/12/28 10:04:21;;;;;;;;;;;;;;;10.30;73.19;100772.31;6278109;28;20049;-84
2023/12/28 10:07:22;;;;;;;5.20;2.42;;;;;;;10.30;72.93;100756.66;6260902;28;20269;-84
2023/12/28 10:10:22;;;;;;;8.07;2.92;;;;;;;10.29;73.51;100760.13;6271663;28;20057;-85
2023/12/28 10:13:25;;;;;;;5.47;2.53;;;;;;;10.11;73.73;100755.81;6260130;28;20056;-83
2023/12/28 10:16:26;;;;;;;9.20;2.80;;;;;;;10.06;73.64;100749.06;6263848;28;20044;-83
2023/12/28 10:19:27;;;;;;;4.13;2.65;;;;;;;10.31;74.03;100750.50;6290628;28;20136;-84
2023/12/28 10:22:29;;;;;;;5.53;2.95;;;;;;;10.36;74.78;100742.47;6296461;28;20048;-83
2023/12/28 10:25:32;;;;;;;5.28;2.88;;;;;;;10.58;74.52;100734.41;6278717;28;20049;-83
2023/12/28 10:28:34;;;;;;;5.95;2.95;;;;;;;10.58;74.12;100744.84;6277710;28;20417;-82
2023/12/28 10:31:35;;;;;;;4.20;2.25;;;;;;;10.35;75.43;100740.78;6278745;28;20056;-82
2023/12/28 10:34:38;;;;;;;5.68;3.35;;;;;;;10.61;75.13;100718.63;6278353;28;20481;-85
2023/12/28 10:37:41;;;;;;;4.50;2.70;;;;;;;10.82;74.35;100727.94;6296327;28;20052;-84
2023/12/28 10:40:48;;;;;;;4.82;2.53;;;;;;;10.76;72.73;100714.38;6274985;28;20048;-82
2023/12/28 10:44:05;;;;;;;3.05;2.28;;;;;;;10.61;71.33;100708.19;6268402;28;20048;-82
2023/12/28 10:47:15;;;;;;;3.60;1.98;;;;;;;10.36;71.92;100701.59;6278030;28;20048;-84
2023/12/28 10:50:16;;;;;;;4.20;2.65;;;;;;;10.68;72.51;100693.88;6277670;28;20523;-84
2023/12/28 10:53:31;;;;;;;4.55;2.63;;;;;;;10.88;72.73;100695.47;6295613;28;20045;-81
2023/12/28 10:56:47;;;;;;;7.18;3.42;;;;;;;11.23;73.17;100691.00;6277163;28;20044;-83
2023/12/28 11:00:06;;;;;;;4.20;2.58;;;;;;;11.27;72.05;100682.06;6277002;28;20186;-83
2023/12/28 11:03:13;;;;;;;6.03;2.50;;;;;;;11.20;71.32;100675.50;6253781;28;20076;-83
2023/12/28 11:06:16;;;;;;;4.22;2.65;;;;;;;10.97;70.33;100670.63;6274022;28;20048;-82
2023/12/28 11:09:20;;;;;;;5.22;2.70;;;;;;;11.12;70.09;100672.44;6288169;28;20048;-82
2023/12/28 11:12:22;;;;;;;4.28;2.45;;;;;;;11.35;69.41;100668.59;6295380;28;20063;-83
2023/12/28 11:15:25;;;;;;;5.93;2.67;;;;;;;11.08;69.40;100663.09;6286687;28;20421;-82
2023/12/28 11:18:28;;;;;;;3.55;2.58;;;;;;;10.95;70.04;100662.88;6277329;28;20055;-83
2023/12/28 11:21:30;;;;;;;11.40;3.20;;;;;;;11.34;69.97;100653.00;6294442;28;20083;-82
2023/12/28 11:24:31;;;;;;;6.22;2.95;;;;;;;11.22;69.85;100652.75;6255195;28;20127;-81
2023/12/28 11:27:36;;;;;;;6.10;3.10;;;;;;;11.24;69.17;100650.03;6252294;28;20087;-81
2023/12/28 11:30:38;;;;;;;4.47;2.72;;;;;;;11.23;69.47;100650.97;6269783;28;20091;-82
2023/12/28 11:33:52;;;;;;;5.03;2.47;;;;;;;11.22;69.46;100647.53;6294929;28;20055;-82
2023/12/28 11:36:55;;;;;;;3.80;2.35;;;;;;;11.27;70.17;100635.03;6266640;28;20052;-82
2023/12/28 11:39:57;;;;;;;3.95;2.15;;;;;;;11.44;69.27;100636.72;6292189;28;20048;-83
2023/12/28 11:42:58;;;;;;;6.32;2.40;;;;;;;11.40;69.76;100622.13;6269226;28;20135;-83
2023/12/28 11:46:00;;;;;;;4.60;2.25;;;;;;;11.35;70.05;100625.97;6266683;28;20052;-83
2023/12/28 11:49:08;;;;;;;4.57;2.73;;;;;;;11.55;69.96;100610.00;6285951;28;20443;-82
2023/12/28 11:52:11;;;;;;;3.20;1.95;;;;;;;11.86;68.76;100597.78;6274341;28;20080;-84
2023/12/28 11:55:20;;;;;;;3.22;2.13;;;;;;;11.89;68.39;100584.56;6289096;28;20040;-82
2023/12/28 11:58:21;;;;;;;7.60;2.90;;;;;;;11.67;69.22;100583.19;6291163;28;20057;-83
2023/12/28 12:01:25;;;;;;;3.70;1.85;;;;;;;11.81;68.64;100584.16;6293779;28;20629;-82
2023/12/28 12:04:26;;;;;;;5.20;2.13;;;;;;;12.00;68.43;100591.78;6283584;28;20052;-83
2023/12/28 12:07:27;;;;;;;3.38;2.10;;;;;;;11.89;69.37;100581.97;6268660;28;20060;-83
2023/12/28 12:10:28;;;;;;;2.28;1.90;;;;;;;12.01;68.52;100575.19;6260880;28;20044;-84
2023/12/28 12:13:30;;;;;;;4.80;2.10;;;;;;;12.00;68.68;100573.50;6294447;28;20103;-83
2023/12/28 12:16:31;;;;;;;3.25;1.92;;;;;;;12.16;68.91;100566.41;6292838;28;20051;-84
2023/12/28 12:19:32;;;;;;;2.85;1.85;;;;;;;12.00;69.97;100570.88;6292676;28;20098;-85
2023/12/28 12:22:35;;;;;;;2.80;1.90;;;;;;;12.10;68.82;100561.56;6267398;28;20052;-85
2023/12/28 12:25:38;;;;;;;5.32;2.15;;;;;;;11.88;68.95;100557.59;6286226;28;20344;-85
2023/12/28 12:28:39;;;;;;;;;;;;;;;11.64;69.58;100561.59;6276671;28;20532;-86
2023/12/28 12:31:42;;;;;;;3.78;2.05;;;;;;;11.89;70.44;100559.25;6291514;28;19920;-89
2023/12/28 12:34:43;;;;;;;2.92;1.90;;;;;;;11.81;70.09;100552.78;6294407;28;20076;-82
2023/12/28 12:37:45;;;;;;;4.53;2.10;;;;;;;11.84;71.10;100563.91;6295820;28;20097;-81
2023/12/28 12:40:46;;;;;;;8.23;2.97;;;;;;;11.78;71.25;100559.03;6293830;28;20052;-82
2023/12/28 12:43:47;;;;;;;2.92;2.00;;;;;;;11.66;71.09;100564.97;6291660;28;20114;-89
2023/12/28 12:46:48;;;;;;;3.92;2.75;;;;;;;11.81;70.66;100561.44;6289298;28;20064;-87
2023/12/28 12:49:51;;;;;;;5.50;2.40;;;;;;;11.89;70.38;100561.88;6257198;28;20059;-82
2023/12/28 12:52:52;;;;;;;3.17;2.22;;;;;;;11.49;70.33;100547.63;6270360;28;20505;-82
2023/12/28 12:55:55;;;;;;;4.50;2.17;;;;;;;11.27;71.45;100538.38;6253541;28;20081;-83
2023/12/28 12:58:57;;;;;;;6.45;2.13;;;;;;;11.28;71.55;100539.22;6279268;28;20105;-82
2023/12/28 13:01:58;;;;;;;6.22;3.40;;;;;;;11.32;72.14;100542.50;6292281;28;20040;-82
2023/12/28 13:04:59;;;;;;;4.97;2.88;;;;;;;11.15;73.42;100528.63;6279471;28;20044;-82
2023/12/28 13:08:00;;;;;;;4.22;2.38;;;;;;;11.22;74.28;100521.28;6280277;28;20451;-82
2023/12/28 13:11:01;;;;;;;4.60;2.50;;;;;;;11.35;74.18;100535.34;6275679;28;20042;-88
2023/12/28 13:14:02;;;;;;;3.60;2.50;;;;;;;11.27;74.02;100527.09;6279369;28;20063;-86
2023/12/28 13:17:03;;;;;;;9.70;3.20;;;;;;;11.17;74.47;100524.16;6299313;28;20133;-87
2023/12/28 13:20:05;;;;;;;7.57;4.13;;;;;;;11.43;73.55;100525.31;6299185;28;20048;-86
2023/12/28 13:23:06;;;;;;;13.40;5.70;;;;;;;11.58;74.23;100527.97;6258564;28;20489;-82
2023/12/28 13:26:09;;;;;;;5.28;2.83;;;;;;;11.26;74.50;100515.81;6275552;28;20071;-82
2023/12/28 13:29:10;;;;;;;3.85;2.30;;;;;;;11.18;74.06;100517.16;6279600;28;20378;-82
2023/12/28 13:32:13;;;;;;;2.50;2.00;;;;;;;10.98;73.38;100500.84;6264261;28;20079;-82
2023/12/28 13:35:14;;;;;;;4.97;2.78;;;;;;;11.08;73.65;100519.47;6283916;28;20051;-83
2023/12/28 13:38:15;;;;;;;4.28;2.53;;;;;;;11.14;74.10;100516.50;6267218;28;20049;-82
2023/12/28 13:41:16;;;;;;;4.63;2.60;;;;;;;11.08;73.61;100514.25;6294770;28;20052;-87
2023/12/28 13:44:17;;;;;;;4.20;2.65;;;;;;;10.87;74.40;100514.50;6263802;28;20531;-82
2023/12/28 13:47:18;;;;;;;3.22;2.10;;;;;;;10.74;75.38;100510.03;6275421;28;20128;-82
2023/12/28 13:50:19;;;;;;;4.85;2.67;;;;;;;10.79;75.59;100508.84;6279692;28;20040;-82
2023/12/28 13:53:20;;;;;;;4.50;2.58;;;;;;;10.78;76.68;100517.59;6276101;28;20048;-86
2023/12/28 13:56:23;;;;;;;2.83;2.25;;;;;;;10.61;76.97;100531.56;6292655;28;20490;-87
2023/12/28 13:59:26;;;;;;;4.05;2.30;;;;;;;10.61;77.94;100517.69;6272269;28;20110;-85
2023/12/28 14:02:27;;;;;;;3.60;2.50;;;;;;;10.52;78.34;100518.16;6254625;28;20080;-82
2023/12/28 14:05:28;;;;;;;5.10;2.40;;;;;;;10.46;78.80;100535.00;6279319;28;20044;-85
2023/12/28 14:08:31;;;;;;;3.25;2.15;;;;;;;10.16;80.08;100517.38;6279179;28;20044;-83